KBML/BML METAR and TAF weather

Enter ICAO airport designator
Station Type Date Time Source
KBML METAR 2021/09/23 17:52 UTC NOAA

KBML 231752Z AUTO 15011G17KT 10SM BKN034 OVC043 23/17 A3009 RMK AO2 SLP187 60000 T02330167 10256 20178 58002


Station Type Date Time Source
KBML Decoded METAR 2021/09/23 17:52 UTC NOAA

BERLIN MUNICIPAL AIRPORT, NH, United States (KBML) 44-35N 71-11W 345M
Sep 23, 2021 - 01:52 PM EDT / 2021.09.23 1752 UTC
Wind: from the SSE (150 degrees) at 13 MPH (11 KT) gusting to 20 MPH (17 KT):0
Visibility: 10 mile(s):0
Sky conditions: overcast
Temperature: 73.9 F (23.3 C)
Dew Point: 62.1 F (16.7 C)
Relative Humidity: 66%
Pressure (altimeter): 30.09 in. Hg (1018 hPa)
Pressure tendency: 0.01 inches (0.2 hPa) lower than three hours ago
ob: KBML 231752Z AUTO 15011G17KT 10SM BKN034 OVC043 23/17 A3009 RMK AO2 SLP187 60000 T02330167 10256 20178 58002
cycle: 18

Station Type Date Time Source
KBML TAF UTC NOAA

Error!

Example: see airport list